If you wish to contribute or participate in the discussions about articles you are invited to join SKYbrary as a registered user

 Actions

Chevak Airport

From SKYbrary Wiki

PAVA
Airport
ICAO: PAVA – IATA: VAK
Summary
Name Chevak Airport
Region North America
Territory Alaska US.gif
Location , Alaska
Serving Chevak
Elevation 22.86 m
75 ft
75 ft22.86 m
Type small airport
Coordinates 61° 32' 1.68" N, 165° 35' 2.40" W
Runways
Designator Length Width Surface ROPS
2/20 975 m3,198.819 ft
23 m75.459 ft
GRVL-G /
18W/36W 610 m2,001.312 ft
122 m400.262 ft
WATER-E /


METAR
Observation PAVA 141456Z AUTO 09010KT 10SM CLR M04/M05 A2962 RMK AO2 SLP116 6//// T10391050 56037 FZRANO PNO $
Station CHEVAK
Date/Time 14 October 2019 14:56:00
Wind direction 90°
Wind speed 10 kts
Lowest cloud amount n/a
Temperature
Dew point
Humidity 92%
QNH hPa
Weather condition n/a